Time;durP1;ratioP1;P1;durP2;ratioP2;P2;SDS_P1;SDS_P2;PMS_P1;PMS_P2;Temp;Humidity;BMP_temperature;BMP_pressure;BME280_temperature;BME280_humidity;BME280_pressure;Samples;Min_cycle;Max_cycle;Signal;HPM_P1;HPM_P2
2022/06/22 00:02:07;;;;;;;6.22;3.95;;;;;;;20.17;100.00;98118.44;5068051;28;20033;-69
2022/06/22 00:04:42;;;;;;;6.78;4.25;;;;;;;20.08;100.00;98112.72;5066847;28;20051;-70
2022/06/22 00:07:13;;;;;;;4.50;3.15;;;;;;;20.03;100.00;98115.47;5063282;28;20112;-69
2022/06/22 00:09:41;;;;;;;7.47;3.72;;;;;;;20.05;100.00;98119.59;5058809;28;20024;-70
2022/06/22 00:12:22;;;;;;;8.25;3.30;;;;;;;19.98;100.00;98110.81;5065894;28;20028;-70
2022/06/22 00:14:50;;;;;;;4.50;3.75;;;;;;;19.93;100.00;98108.91;5063917;28;20033;-69
2022/06/22 00:17:19;;;;;;;8.43;3.90;;;;;;;19.88;100.00;98099.88;5062460;28;20039;-69
2022/06/22 00:19:44;;;;;;;5.40;3.90;;;;;;;19.88;100.00;98094.41;5057350;28;20021;-71
2022/06/22 00:22:27;;;;;;;5.60;3.25;;;;;;;19.84;100.00;98094.16;5066233;28;20032;-70
2022/06/22 00:25:13;;;;;;;8.15;4.40;;;;;;;19.81;100.00;98088.41;5060443;28;20029;-70
2022/06/22 00:27:38;;;;;;;4.88;3.42;;;;;;;19.76;100.00;98081.00;5047076;28;20071;-70
2022/06/22 00:30:09;;;;;;;6.45;3.67;;;;;;;19.72;100.00;98074.44;5043443;28;20033;-70
2022/06/22 00:32:35;;;;;;;5.35;3.60;;;;;;;19.68;100.00;98073.38;5065276;28;20036;-69
2022/06/22 00:35:35;;;;;;;5.63;3.60;;;;;;;19.70;100.00;98071.97;5063050;28;20028;-69
2022/06/22 00:38:01;;;;;;;6.15;3.20;;;;;;;19.65;100.00;98071.16;5058353;28;20502;-69
2022/06/22 00:40:26;;;;;;;4.78;3.33;;;;;;;19.68;100.00;98067.88;5062397;28;20051;-69
2022/06/22 00:42:54;;;;;;;6.45;3.35;;;;;;;19.69;100.00;98081.31;5069931;28;20012;-70
2022/06/22 00:45:22;;;;;;;4.80;3.00;;;;;;;19.70;100.00;98087.59;5064607;28;20028;-69
2022/06/22 00:47:54;;;;;;;4.60;2.78;;;;;;;19.67;100.00;98077.19;5063788;28;20035;-70
2022/06/22 00:50:26;;;;;;;4.43;3.33;;;;;;;19.64;100.00;98086.78;5063953;28;20028;-70
2022/06/22 00:53:01;;;;;;;7.43;3.15;;;;;;;19.63;100.00;98087.06;5050011;28;20020;-70
2022/06/22 00:55:38;;;;;;;6.88;3.50;;;;;;;19.41;100.00;98076.41;5039971;28;20058;-68
2022/06/22 00:58:23;;;;;;;5.20;3.45;;;;;;;19.46;100.00;98103.84;5056191;28;20491;-70
2022/06/22 01:00:58;;;;;;;6.45;3.75;;;;;;;19.35;100.00;98108.53;5066651;28;20461;-69
2022/06/22 01:03:33;;;;;;;5.95;3.30;;;;;;;19.25;100.00;98086.59;5068568;28;20035;-70
2022/06/22 01:06:09;;;;;;;4.63;2.85;;;;;;;19.32;100.00;98095.38;5063198;28;20050;-70
2022/06/22 01:08:46;;;;;;;5.50;2.80;;;;;;;19.40;100.00;98080.28;5055629;28;20395;-69
2022/06/22 01:14:05;;;;;;;9.48;3.60;;;;;;;19.50;100.00;98093.97;5066057;28;20051;-69
2022/06/22 01:16:36;;;;;;;6.97;3.88;;;;;;;19.22;100.00;98093.47;5060428;28;20028;-69
2022/06/22 01:19:25;;;;;;;5.82;3.13;;;;;;;19.28;100.00;98113.47;5042053;28;20432;-69
2022/06/22 01:22:22;;;;;;;6.68;3.78;;;;;;;19.11;100.00;98119.28;5023112;28;20045;-70
2022/06/22 01:24:59;;;;;;;8.65;3.80;;;;;;;19.12;100.00;98120.09;5063895;28;20033;-70
2022/06/22 01:27:39;;;;;;;4.80;3.40;;;;;;;19.33;100.00;98115.41;5067053;28;20025;-69
2022/06/22 01:30:21;;;;;;;6.90;3.88;;;;;;;19.31;100.00;98112.09;5053930;28;20479;-69
2022/06/22 01:32:47;;;;;;;9.60;4.03;;;;;;;19.09;100.00;98110.50;5062666;28;20032;-68
2022/06/22 01:35:18;;;;;;;7.47;3.80;;;;;;;19.09;100.00;98115.97;5043427;28;20056;-70
2022/06/22 01:37:46;;;;;;;5.47;3.10;;;;;;;19.14;100.00;98101.44;5058097;28;20048;-68
2022/06/22 01:40:22;;;;;;;7.53;3.28;;;;;;;19.19;100.00;98106.94;5059595;28;20032;-70
2022/06/22 01:42:57;;;;;;;4.85;3.67;;;;;;;19.24;100.00;98099.50;5059325;28;20040;-69
2022/06/22 01:45:31;;;;;;;7.22;3.22;;;;;;;19.27;100.00;98078.94;5062277;28;20506;-69
2022/06/22 01:48:04;;;;;;;7.43;3.92;;;;;;;19.17;100.00;98084.44;5057768;28;20045;-70
2022/06/22 01:50:39;;;;;;;6.70;3.50;;;;;;;19.16;100.00;98078.13;5061105;28;20043;-69
2022/06/22 01:53:35;;;;;;;5.15;3.63;;;;;;;18.98;100.00;98082.28;5055104;28;20031;-69
2022/06/22 01:56:23;;;;;;;10.50;3.42;;;;;;;18.83;100.00;98076.78;5060131;28;20025;-71
2022/06/22 01:59:10;;;;;;;4.65;3.45;;;;;;;18.79;100.00;98073.78;5064935;28;20103;-71
2022/06/22 02:01:50;;;;;;;8.48;3.83;;;;;;;18.72;100.00;98078.69;5049560;28;20385;-70
2022/06/22 02:04:34;;;;;;;4.38;3.22;;;;;;;18.67;100.00;98083.34;5058570;28;20036;-71
2022/06/22 02:10:27;;;;;;;7.80;3.63;;;;;;;18.62;100.00;98100.59;5059381;28;20112;-71
2022/06/22 02:13:04;;;;;;;5.30;3.60;;;;;;;18.62;100.00;98117.84;5059478;28;20052;-71
2022/06/22 02:15:38;;;;;;;8.15;3.92;;;;;;;18.66;100.00;98128.28;5064511;28;20025;-71
2022/06/22 02:18:08;;;;;;;9.75;3.58;;;;;;;18.68;100.00;98110.50;5069861;28;20036;-71
2022/06/22 02:20:37;;;;;;;5.25;3.95;;;;;;;18.91;100.00;98135.72;5064741;28;20470;-71
2022/06/22 02:23:18;;;;;;;7.72;4.32;;;;;;;18.70;100.00;98149.38;5066498;28;20035;-71
2022/06/22 02:25:56;;;;;;;4.32;3.63;;;;;;;18.61;100.00;98160.06;5062070;28;20026;-71
2022/06/22 02:28:22;;;;;;;8.82;4.00;;;;;;;18.51;100.00;98164.69;5065988;28;20039;-71
2022/06/22 02:30:48;;;;;;;8.18;3.78;;;;;;;18.56;100.00;98164.72;5064323;28;20029;-71
2022/06/22 02:33:14;;;;;;;7.47;3.88;;;;;;;18.55;100.00;98161.16;5062556;28;20029;-71
2022/06/22 02:35:41;;;;;;;6.00;4.05;;;;;;;18.42;100.00;98150.72;5063691;28;20052;-71
2022/06/22 02:38:09;;;;;;;7.05;3.63;;;;;;;18.53;100.00;98155.13;5060987;28;20029;-71
2022/06/22 02:44:29;;;;;;;6.18;3.50;;;;;;;18.44;100.00;98123.03;5067704;28;20029;-71
2022/06/22 02:46:17;;;;;;;6.80;3.83;;;;;;;18.73;100.00;98145.28;5066990;28;20082;-71
2022/06/22 02:48:48;;;;;;;5.68;3.92;;;;;;;18.70;100.00;98129.38;5065752;28;20021;-70
2022/06/22 02:51:20;;;;;;;4.85;3.85;;;;;;;18.62;100.00;98123.34;5069757;28;20046;-70
2022/06/22 02:53:46;;;;;;;4.63;3.70;;;;;;;18.55;100.00;98106.38;5057064;28;20040;-70
2022/06/22 02:56:16;;;;;;;8.50;3.30;;;;;;;18.46;100.00;98098.94;5066798;28;20039;-70
2022/06/22 02:58:41;;;;;;;5.22;3.53;;;;;;;18.39;100.00;98099.19;5067637;28;20077;-71
2022/06/22 03:01:12;;;;;;;5.55;3.40;;;;;;;18.43;100.00;98089.34;5065329;28;20036;-71
2022/06/22 03:03:39;;;;;;;5.07;3.80;;;;;;;18.42;100.00;98075.91;5075089;28;20123;-72
2022/06/22 03:06:10;;;;;;;8.35;3.85;;;;;;;18.43;100.00;98056.50;5065759;28;20601;-71
2022/06/22 03:08:36;;;;;;;6.43;3.38;;;;;;;18.44;100.00;98049.09;5065983;28;20470;-71
2022/06/22 03:11:05;;;;;;;7.78;3.88;;;;;;;18.47;100.00;98063.06;5066259;28;20131;-70
2022/06/22 03:13:41;;;;;;;5.20;3.67;;;;;;;18.48;100.00;98061.97;5064012;28;20089;-71
2022/06/22 03:16:26;;;;;;;5.88;4.00;;;;;;;18.50;100.00;98053.50;5060326;28;20393;-71
2022/06/22 03:18:53;;;;;;;9.27;4.00;;;;;;;18.43;100.00;98031.03;5077189;28;20108;-70
2022/06/22 03:21:19;;;;;;;5.00;3.53;;;;;;;18.59;100.00;98035.41;5088583;28;20100;-71
2022/06/22 03:24:06;;;;;;;4.30;3.75;;;;;;;18.70;100.00;98039.78;5066469;28;20586;-70
2022/06/22 03:26:38;;;;;;;5.20;3.45;;;;;;;18.62;100.00;98040.31;5064994;28;20025;-72
2022/06/22 03:29:13;;;;;;;8.63;4.22;;;;;;;18.56;100.00;98047.72;5063349;28;20046;-71
2022/06/22 03:31:46;;;;;;;9.30;3.72;;;;;;;18.51;100.00;98060.59;5064694;28;20102;-72
2022/06/22 03:34:17;;;;;;;7.15;3.85;;;;;;;18.50;100.00;98084.44;5064054;28;20037;-71
2022/06/22 03:37:05;;;;;;;5.82;4.10;;;;;;;18.60;100.00;98095.41;5066492;28;20032;-71
2022/06/22 03:39:34;;;;;;;10.77;4.55;;;;;;;18.40;100.00;98098.13;5060633;28;20060;-72
2022/06/22 03:42:27;;;;;;;5.60;3.55;;;;;;;18.37;100.00;98104.97;5069966;28;20033;-71
2022/06/22 03:45:02;;;;;;;7.55;3.50;;;;;;;18.27;100.00;98112.34;5059321;28;20059;-72
2022/06/22 03:47:43;;;;;;;13.75;3.88;;;;;;;18.38;100.00;98144.13;5063209;28;20056;-71
2022/06/22 03:50:30;;;;;;;7.07;3.63;;;;;;;18.51;100.00;98132.66;5048107;28;20074;-69
2022/06/22 03:53:11;;;;;;;7.25;3.40;;;;;;;18.51;100.00;98138.13;5082680;22;20128;-67
2022/06/22 03:55:42;;;;;;;6.65;3.67;;;;;;;18.46;100.00;98140.84;5061377;28;20031;-68
2022/06/22 03:58:10;;;;;;;9.07;4.65;;;;;;;18.54;100.00;98125.78;5070562;28;20021;-62
2022/06/22 04:00:38;;;;;;;4.70;3.65;;;;;;;18.56;100.00;98115.41;5070585;28;20032;-62
2022/06/22 04:03:05;;;;;;;6.20;4.07;;;;;;;18.73;100.00;98134.31;5070083;28;20032;-63
2022/06/22 04:05:39;;;;;;;6.60;3.15;;;;;;;18.69;100.00;98123.06;5071619;28;20024;-64
2022/06/22 04:08:04;;;;;;;6.60;3.97;;;;;;;18.80;100.00;98138.47;5068322;28;20046;-63
2022/06/22 04:10:32;;;;;;;10.00;4.05;;;;;;;18.85;100.00;98136.81;5071365;28;20385;-68
2022/06/22 04:13:01;;;;;;;6.22;3.92;;;;;;;18.93;100.00;98139.84;5071608;28;20398;-68
2022/06/22 04:15:38;;;;;;;5.23;3.70;;;;;;;18.95;100.00;98120.38;5052035;28;20039;-68
2022/06/22 04:18:20;;;;;;;9.15;4.38;;;;;;;19.15;100.00;98138.72;5063663;28;20028;-68
2022/06/22 04:20:52;;;;;;;4.85;3.72;;;;;;;19.19;100.00;98139.84;5057613;28;20042;-67
2022/06/22 04:23:26;;;;;;;5.13;3.35;;;;;;;19.28;100.00;98129.94;5081081;28;20031;-67
2022/06/22 04:25:53;;;;;;;5.40;4.00;;;;;;;19.29;100.00;98126.13;5050050;28;20527;-68
2022/06/22 04:28:20;;;;;;;5.38;3.70;;;;;;;19.45;100.00;98135.13;5068646;28;20394;-68
2022/06/22 04:30:49;;;;;;;5.03;3.72;;;;;;;19.55;100.00;98129.63;5072549;28;20646;-65
2022/06/22 04:33:27;;;;;;;9.05;4.60;;;;;;;19.52;100.00;98123.84;5069324;28;20059;-67
2022/06/22 04:36:14;;;;;;;7.78;4.18;;;;;;;19.52;100.00;98145.81;5072105;28;20028;-66
2022/06/22 04:39:14;;;;;;;8.43;4.20;;;;;;;19.48;100.00;98146.38;5068464;28;20107;-69
2022/06/22 04:41:41;;;;;;;7.10;4.57;;;;;;;19.55;100.00;98150.75;5063348;28;20358;-70
2022/06/22 04:44:43;;;;;;;9.60;4.13;;;;;;;19.56;100.00;98146.91;5072064;28;20035;-71
2022/06/22 04:47:16;;;;;;;5.32;3.83;;;;;;;19.62;100.00;98140.28;5063497;28;20040;-69
2022/06/22 04:49:57;;;;;;;5.50;3.88;;;;;;;19.60;100.00;98139.78;5061527;28;20074;-68
2022/06/22 04:52:50;;;;;;;5.25;3.78;;;;;;;19.64;100.00;98141.66;5067359;28;20028;-68
2022/06/22 04:55:18;;;;;;;4.88;3.58;;;;;;;19.70;100.00;98147.97;5055280;28;20044;-68
2022/06/22 04:57:48;;;;;;;6.15;3.40;;;;;;;19.74;100.00;98135.34;5063088;28;20032;-68
2022/06/22 05:00:19;;;;;;;7.97;4.60;;;;;;;19.91;100.00;98146.84;5053587;28;20022;-65
2022/06/22 05:02:48;;;;;;;9.30;4.15;;;;;;;20.03;100.00;98134.69;5060503;28;20028;-70
2022/06/22 05:05:19;;;;;;;6.57;3.83;;;;;;;20.27;100.00;98146.66;5069367;28;20512;-66
2022/06/22 05:08:07;;;;;;;10.35;4.30;;;;;;;20.40;100.00;98149.91;5066710;28;20028;-67
2022/06/22 05:11:20;;;;;;;6.70;3.88;;;;;;;20.74;100.00;98148.06;5080564;28;20025;-68
2022/06/22 05:13:50;;;;;;;8.00;4.32;;;;;;;20.78;100.00;98135.38;4979924;28;20516;-68
2022/06/22 05:16:20;;;;;;;6.53;4.35;;;;;;;20.89;100.00;98129.81;5058177;28;20049;-68
2022/06/22 05:18:47;;;;;;;7.25;4.18;;;;;;;21.01;100.00;98135.75;5078655;28;20040;-67
2022/06/22 05:21:37;;;;;;;8.68;3.92;;;;;;;21.02;100.00;98140.16;5079133;28;20470;-68
2022/06/22 05:24:15;;;;;;;5.85;4.32;;;;;;;21.13;100.00;98136.19;5076550;28;20071;-67
2022/06/22 05:26:41;;;;;;;6.03;3.72;;;;;;;21.16;100.00;98126.56;5076038;28;20107;-68
2022/06/22 05:29:16;;;;;;;7.93;3.70;;;;;;;21.38;100.00;98126.13;5076508;28;20058;-67
2022/06/22 05:31:47;;;;;;;4.70;3.53;;;;;;;21.40;100.00;98141.19;5077598;28;20050;-68
2022/06/22 05:34:24;;;;;;;9.38;3.85;;;;;;;21.58;100.00;98131.38;5076896;28;20033;-67
2022/06/22 05:36:59;;;;;;;5.53;3.63;;;;;;;21.51;100.00;98147.44;5075943;28;20028;-67
2022/06/22 05:39:25;;;;;;;7.32;3.72;;;;;;;21.39;100.00;98149.75;5078758;28;20032;-65
2022/06/22 05:41:50;;;;;;;7.20;4.40;;;;;;;21.21;100.00;98154.81;5081637;28;20033;-68
2022/06/22 05:44:18;;;;;;;6.22;3.90;;;;;;;21.16;100.00;98146.63;5079329;28;20032;-71
2022/06/22 05:46:55;;;;;;;7.45;3.70;;;;;;;21.35;100.00;98163.25;5072309;28;20051;-64
2022/06/22 05:49:28;;;;;;;12.18;4.22;;;;;;;21.36;100.00;98161.31;5064666;28;20147;-65
2022/06/22 05:52:26;;;;;;;9.80;4.25;;;;;;;21.43;100.00;98164.56;5072318;28;20021;-64
2022/06/22 05:54:59;;;;;;;8.50;4.45;;;;;;;21.69;100.00;98158.81;5023478;28;20524;-64
2022/06/22 05:57:43;;;;;;;13.85;4.65;;;;;;;21.69;100.00;98159.63;5068861;28;20043;-68
2022/06/22 06:00:14;;;;;;;5.15;4.10;;;;;;;21.91;100.00;98163.81;5072159;28;20086;-65
2022/06/22 06:02:56;;;;;;;6.25;4.20;;;;;;;22.29;98.48;98161.97;5073024;28;20520;-67
2022/06/22 06:05:35;;;;;;;6.93;4.45;;;;;;;22.49;92.77;98160.88;5072296;28;20039;-66
2022/06/22 06:08:02;;;;;;;;;;;;;;;22.80;89.77;98164.03;5072990;28;20359;-68
2022/06/22 06:10:34;;;;;;;7.03;4.28;;;;;;;23.60;83.21;98162.16;5072988;28;19923;-67
2022/06/22 06:13:12;;;;;;;7.53;4.15;;;;;;;24.24;78.32;98154.84;5068136;28;20030;-67
2022/06/22 06:15:39;;;;;;;7.67;4.60;;;;;;;24.18;79.98;98155.25;5067092;28;20461;-67
2022/06/22 06:18:07;;;;;;;8.43;4.00;;;;;;;24.11;79.69;98157.63;5067498;28;20029;-67
2022/06/22 06:20:38;;;;;;;7.90;5.20;;;;;;;24.18;76.25;98160.78;5071035;28;20028;-67
2022/06/22 06:23:10;;;;;;;6.55;4.40;;;;;;;24.32;76.17;98150.53;5072645;28;20035;-74
2022/06/22 06:28:35;;;;;;;8.00;4.85;;;;;;;24.41;77.80;98170.78;5069981;28;20177;-72
2022/06/22 06:31:09;;;;;;;9.00;4.70;;;;;;;23.65;78.92;98180.56;5072565;28;20017;-71
2022/06/22 06:33:38;;;;;;;7.88;4.75;;;;;;;23.67;75.79;98189.38;5064135;28;20036;-73
2022/06/22 06:36:20;;;;;;;4.80;3.50;;;;;;;23.48;77.51;98192.22;5073671;28;20355;-74
2022/06/22 06:39:05;;;;;;;7.28;4.32;;;;;;;23.37;83.37;98188.78;5070418;28;20032;-71
2022/06/22 06:42:03;;;;;;;7.80;4.53;;;;;;;23.24;81.51;98204.22;5063462;28;20035;-70
2022/06/22 06:44:31;;;;;;;7.22;3.78;;;;;;;23.10;82.75;98215.16;5074684;28;20025;-69
2022/06/22 06:47:05;;;;;;;6.53;4.25;;;;;;;22.90;86.30;98227.31;5072469;28;20486;-69
2022/06/22 06:49:48;;;;;;;6.75;3.65;;;;;;;22.52;90.18;98232.78;5071876;28;20468;-69
2022/06/22 06:52:35;;;;;;;11.40;4.20;;;;;;;22.13;93.20;98251.44;5071525;28;20024;-69
2022/06/22 06:55:21;;;;;;;6.13;3.88;;;;;;;22.03;96.47;98247.69;5067170;28;20036;-69
2022/06/22 06:58:30;;;;;;;6.25;3.75;;;;;;;22.08;92.53;98255.06;5064001;28;20028;-69
2022/06/22 07:00:56;;;;;;;4.60;3.30;;;;;;;22.01;83.23;98251.84;5064544;28;20032;-69
2022/06/22 07:03:26;;;;;;;7.30;3.42;;;;;;;21.95;79.59;98255.75;5047682;28;20046;-68
2022/06/22 07:05:52;;;;;;;7.65;3.15;;;;;;;21.13;83.33;98264.66;5064919;28;20024;-73
2022/06/22 07:08:20;;;;;;;5.57;3.10;;;;;;;21.68;80.21;98259.84;5070454;28;20024;-73
2022/06/22 07:11:17;;;;;;;9.50;3.15;;;;;;;22.49;76.94;98268.41;5070986;28;20052;-73
2022/06/22 07:13:47;;;;;;;7.15;3.20;;;;;;;22.95;76.79;98256.75;5067138;28;20038;-70
2022/06/22 07:16:20;;;;;;;5.85;3.13;;;;;;;23.76;67.44;98253.88;5050907;28;20123;-71
2022/06/22 07:18:53;;;;;;;6.60;3.17;;;;;;;24.84;62.48;98261.72;5054713;28;20032;-72
2022/06/22 07:21:32;;;;;;;4.43;2.92;;;;;;;24.65;62.71;98259.09;5071000;28;20032;-73
2022/06/22 07:24:03;;;;;;;;;;;;;;;24.38;64.28;98259.06;5068518;28;20032;-75
2022/06/22 07:26:42;;;;;;;6.13;3.03;;;;;;;24.11;66.86;98260.69;5072021;28;19996;-76
2022/06/22 07:29:25;;;;;;;4.97;3.30;;;;;;;24.10;65.03;98259.03;5069001;28;20100;-68
2022/06/22 07:32:37;;;;;;;9.20;3.92;;;;;;;23.61;63.31;98252.19;5071482;28;20019;-68
2022/06/22 07:35:30;;;;;;;5.80;3.38;;;;;;;23.43;65.88;98240.06;5024603;28;20080;-68
2022/06/22 07:38:14;;;;;;;5.28;3.17;;;;;;;23.55;69.06;98250.59;5023388;28;20032;-71
2022/06/22 07:41:18;;;;;;;4.60;3.15;;;;;;;23.35;70.30;98255.34;5070775;28;20023;-74
2022/06/22 07:43:26;;;;;;;6.43;3.72;;;;;;;23.26;68.66;98259.09;5061708;28;20032;-70
2022/06/22 07:45:52;;;;;;;6.55;3.78;;;;;;;23.23;68.34;98246.72;5069157;28;20021;-70
2022/06/22 07:48:20;;;;;;;8.80;4.40;;;;;;;23.14;70.86;98241.06;5063127;28;20032;-70
2022/06/22 07:50:50;;;;;;;9.18;4.47;;;;;;;23.21;72.99;98239.84;5070154;28;20025;-75
2022/06/22 07:53:27;;;;;;;5.85;3.50;;;;;;;23.22;71.35;98228.53;5061860;28;20359;-68
2022/06/22 07:55:59;;;;;;;5.22;3.38;;;;;;;23.25;70.11;98225.16;5069393;28;20029;-74
2022/06/22 07:58:34;;;;;;;9.27;3.17;;;;;;;23.19;70.51;98218.09;5068320;28;20086;-71
2022/06/22 08:01:05;;;;;;;9.73;4.00;;;;;;;23.11;72.95;98216.81;5063993;28;20040;-74
2022/06/22 08:03:42;;;;;;;9.45;3.85;;;;;;;23.37;72.81;98222.75;5047341;28;20386;-70
2022/06/22 08:06:13;;;;;;;10.00;4.07;;;;;;;23.46;71.27;98216.53;5066102;28;20066;-68
2022/06/22 08:09:03;;;;;;;8.98;3.75;;;;;;;23.36;71.80;98199.00;5063979;28;20528;-71
2022/06/22 08:11:48;;;;;;;8.07;4.10;;;;;;;23.29;72.95;98186.72;5068437;28;20033;-74
2022/06/22 08:14:24;;;;;;;9.02;3.65;;;;;;;23.26;72.46;98179.84;5067778;28;20020;-75
2022/06/22 08:16:54;;;;;;;6.93;3.83;;;;;;;23.04;74.08;98186.03;5063443;28;20047;-76
2022/06/22 08:19:21;;;;;;;8.73;4.45;;;;;;;23.22;74.36;98178.84;5071266;28;20025;-73
2022/06/22 08:21:52;;;;;;;7.22;3.58;;;;;;;23.75;72.25;98192.28;5066244;28;20120;-75
2022/06/22 08:24:19;;;;;;;9.55;3.72;;;;;;;24.03;70.61;98195.09;5064065;28;20504;-67
2022/06/22 08:26:47;;;;;;;5.60;3.92;;;;;;;24.15;67.77;98198.13;5067283;28;20027;-73
2022/06/22 08:29:16;;;;;;;7.65;3.80;;;;;;;24.58;65.75;98199.78;5071708;28;20488;-73
2022/06/22 08:31:50;;;;;;;7.70;3.50;;;;;;;24.83;64.53;98196.44;5069599;28;20187;-70
2022/06/22 08:34:21;;;;;;;6.85;3.53;;;;;;;24.86;65.21;98195.00;5067183;28;20033;-73
2022/06/22 08:36:53;;;;;;;8.93;3.90;;;;;;;24.84;65.17;98205.56;5058354;28;20028;-68
2022/06/22 08:39:37;;;;;;;9.50;3.85;;;;;;;24.76;64.73;98195.22;5068326;28;20085;-70
2022/06/22 08:42:05;;;;;;;6.90;3.83;;;;;;;24.44;67.16;98200.63;5061568;28;20035;-70
2022/06/22 08:44:49;;;;;;;11.27;4.13;;;;;;;24.34;69.02;98184.22;5070494;28;20028;-70
2022/06/22 08:47:29;;;;;;;7.82;3.50;;;;;;;24.19;70.08;98193.66;5053316;28;20028;-71
2022/06/22 08:50:03;;;;;;;6.65;4.03;;;;;;;24.10;71.74;98195.47;5069781;28;20074;-73
2022/06/22 08:52:39;;;;;;;6.53;3.88;;;;;;;24.06;74.98;98192.53;5065133;28;20131;-71
2022/06/22 08:55:12;;;;;;;8.02;4.28;;;;;;;24.07;73.22;98190.56;5068049;28;20131;-72
2022/06/22 08:58:02;;;;;;;9.82;4.35;;;;;;;24.08;77.25;98195.00;5061513;28;20029;-70
2022/06/22 09:00:40;;;;;;;6.20;3.80;;;;;;;24.14;74.56;98204.81;5070755;28;20039;-69
2022/06/22 09:03:30;;;;;;;6.38;3.95;;;;;;;24.16;72.93;98199.78;5044365;28;20509;-71
2022/06/22 09:06:10;;;;;;;13.40;3.65;;;;;;;24.12;74.85;98203.47;5068101;28;20040;-72
2022/06/22 09:08:54;;;;;;;6.82;3.70;;;;;;;24.13;74.42;98207.88;5064563;28;20056;-73
2022/06/22 09:11:38;;;;;;;5.25;2.95;;;;;;;24.26;69.84;98213.41;5065815;28;20036;-75
2022/06/22 09:14:18;;;;;;;7.93;3.63;;;;;;;24.25;69.71;98211.75;5069324;28;20123;-70
2022/06/22 09:17:05;;;;;;;6.10;3.30;;;;;;;24.35;69.52;98212.69;5070396;28;20040;-75
2022/06/22 09:20:12;;;;;;;9.60;3.50;;;;;;;24.24;73.78;98215.66;5071149;28;20024;-74
2022/06/22 09:22:58;;;;;;;6.05;3.75;;;;;;;24.30;73.17;98221.09;5037048;28;20048;-72
2022/06/22 09:25:41;;;;;;;8.15;3.85;;;;;;;24.44;69.54;98228.28;5063039;28;20091;-68
2022/06/22 09:28:16;;;;;;;5.88;4.07;;;;;;;24.05;72.13;98218.53;5066591;28;20037;-78
2022/06/22 09:31:08;;;;;;;8.02;3.80;;;;;;;24.24;73.08;98232.25;5066182;28;20029;-73
2022/06/22 09:33:42;;;;;;;8.23;4.45;;;;;;;24.32;71.40;98229.91;5064177;28;20420;-69
2022/06/22 09:36:35;;;;;;;10.60;4.65;;;;;;;23.98;74.14;98239.41;5072345;28;20060;-72
2022/06/22 09:39:19;;;;;;;6.10;4.10;;;;;;;24.00;73.56;98237.97;5069687;28;20111;-74
2022/06/22 09:42:06;;;;;;;8.57;4.70;;;;;;;23.95;71.74;98249.13;5067519;28;20056;-74
2022/06/22 09:45:07;;;;;;;10.00;4.82;;;;;;;23.92;71.79;98240.59;5060715;28;20032;-74
2022/06/22 09:47:49;;;;;;;12.90;5.78;;;;;;;23.81;71.67;98237.19;5073748;28;20032;-72
2022/06/22 09:50:24;;;;;;;8.75;5.22;;;;;;;23.94;71.71;98255.75;5072754;28;20053;-68
2022/06/22 09:53:19;;;;;;;7.95;4.50;;;;;;;24.25;69.38;98247.69;5049321;28;20027;-68
2022/06/22 09:56:25;;;;;;;8.85;4.65;;;;;;;24.20;69.48;98253.31;5074978;28;20020;-68
2022/06/22 09:58:56;;;;;;;8.32;4.40;;;;;;;24.57;67.40;98250.69;5071222;28;20051;-68
2022/06/22 10:01:27;;;;;;;6.20;3.90;;;;;;;24.85;66.77;98251.47;5065296;28;20032;-69
2022/06/22 10:04:13;;;;;;;7.22;4.03;;;;;;;24.92;66.58;98249.09;5067526;28;20032;-69
2022/06/22 10:06:44;;;;;;;5.78;4.15;;;;;;;25.10;63.43;98253.66;5065960;28;20644;-69
2022/06/22 10:09:28;;;;;;;8.23;4.57;;;;;;;25.03;65.27;98258.81;5073219;28;20103;-68
2022/06/22 10:12:12;;;;;;;7.00;4.47;;;;;;;25.00;66.91;98261.38;5069545;28;20024;-69
2022/06/22 10:14:50;;;;;;;7.55;4.63;;;;;;;25.33;62.31;98264.78;5071452;28;20024;-69
2022/06/22 10:17:38;;;;;;;12.60;5.35;;;;;;;25.23;62.43;98265.03;5070040;28;20078;-69
2022/06/22 10:20:26;;;;;;;11.88;4.57;;;;;;;25.13;63.86;98269.66;5063551;28;20040;-70
2022/06/22 10:23:21;;;;;;;8.90;4.73;;;;;;;24.91;63.74;98267.63;5057080;28;20032;-70
2022/06/22 10:26:16;;;;;;;8.10;5.03;;;;;;;24.54;68.92;98267.91;5062279;28;20313;-70
2022/06/22 10:29:09;;;;;;;10.75;4.68;;;;;;;24.39;70.37;98271.75;5067691;28;20377;-70
2022/06/22 10:32:16;;;;;;;9.45;5.25;;;;;;;24.38;72.61;98272.91;5042770;28;20111;-70
2022/06/22 10:35:05;;;;;;;13.77;6.13;;;;;;;24.43;74.43;98270.03;5005937;28;20037;-70
2022/06/22 10:37:53;;;;;;;9.02;5.07;;;;;;;24.32;74.67;98269.41;5003501;28;20042;-70
2022/06/22 10:46:11;;;;;;;9.45;5.65;;;;;;;24.06;75.61;98269.09;5060925;28;20039;-70
2022/06/22 10:48:57;;;;;;;8.48;4.85;;;;;;;24.53;69.58;98267.09;5062213;28;20037;-70
2022/06/22 10:51:56;;;;;;;8.07;5.47;;;;;;;24.57;70.50;98232.13;5062521;28;20689;-71
2022/06/22 10:54:49;;;;;;;16.48;6.38;;;;;;;24.69;70.29;98276.69;5059400;28;20086;-69
2022/06/22 10:57:23;;;;;;;12.07;5.18;;;;;;;24.81;71.23;98261.50;5060306;28;20051;-69
2022/06/22 11:00:09;;;;;;;9.88;4.95;;;;;;;25.18;66.93;98268.75;5066207;28;20025;-70
2022/06/22 11:02:53;;;;;;;13.27;5.75;;;;;;;24.70;69.75;98281.09;5068157;28;20020;-68
2022/06/22 11:05:40;;;;;;;11.38;5.75;;;;;;;24.54;74.00;98285.31;5061729;28;20028;-68
2022/06/22 11:08:14;;;;;;;8.90;4.97;;;;;;;24.49;74.10;98289.00;5068333;28;20029;-68
2022/06/22 11:10:50;;;;;;;14.75;5.65;;;;;;;24.56;72.33;98288.59;5064056;28;20047;-68
2022/06/22 11:13:28;;;;;;;10.25;5.53;;;;;;;23.98;78.06;98302.94;5068635;28;20082;-68
2022/06/22 11:16:24;;;;;;;11.25;6.25;;;;;;;23.40;83.63;98307.72;5066441;28;20373;-70
2022/06/22 11:19:02;;;;;;;19.35;7.78;;;;;;;22.96;93.04;98303.38;5062727;28;20051;-70
2022/06/22 11:21:36;;;;;;;9.40;5.97;;;;;;;22.92;97.19;98324.41;5064734;28;20048;-70
2022/06/22 11:24:11;;;;;;;12.00;6.03;;;;;;;22.64;100.00;98322.53;5065254;28;20036;-68
2022/06/22 11:43:23;;;;;;;12.07;6.43;;;;;;;23.16;100.00;98351.13;2019911;22;20080;-74
2022/06/22 11:46:14;;;;;;;11.05;7.07;;;;;;;23.16;100.00;98351.97;5061880;28;20478;-73
2022/06/22 11:49:01;;;;;;;9.80;6.80;;;;;;;23.27;100.00;98351.84;5021040;28;20037;-73
2022/06/22 11:51:43;;;;;;;10.13;6.10;;;;;;;23.57;100.00;98336.72;5054530;28;20069;-73
2022/06/22 11:54:30;;;;;;;10.23;6.68;;;;;;;23.75;100.00;98346.97;5060122;28;20433;-72
2022/06/22 11:56:56;;;;;;;12.30;6.30;;;;;;;24.13;100.00;98357.97;5063200;28;20017;-72
2022/06/22 11:59:48;;;;;;;13.73;7.20;;;;;;;24.36;99.96;98349.78;5062761;28;20036;-64
2022/06/22 12:02:55;;;;;;;10.10;7.00;;;;;;;24.10;100.00;98353.00;5062505;28;20036;-69
2022/06/22 12:05:42;;;;;;;8.82;6.03;;;;;;;24.37;100.00;98352.25;5063528;28;20171;-69
2022/06/22 12:08:25;;;;;;;17.45;7.35;;;;;;;24.31;100.00;98349.88;5069949;28;20020;-69
2022/06/22 12:11:01;;;;;;;12.73;6.13;;;;;;;24.64;100.00;98340.44;5070618;28;20074;-74
2022/06/22 12:13:26;;;;;;;10.82;7.00;;;;;;;24.68;100.00;98347.00;5068124;28;20024;-75
2022/06/22 12:16:01;;;;;;;13.70;7.55;;;;;;;24.82;100.00;98340.63;5071450;28;20493;-73
2022/06/22 12:18:51;;;;;;;9.98;7.07;;;;;;;25.43;100.00;98333.78;5059424;28;20021;-72
2022/06/22 12:21:53;;;;;;;10.65;6.28;;;;;;;25.61;100.00;98329.22;5059154;28;20033;-70
2022/06/22 12:24:32;;;;;;;16.80;8.65;;;;;;;25.71;98.62;98317.88;5065778;28;20044;-72
2022/06/22 12:26:57;;;;;;;13.05;8.13;;;;;;;25.85;96.79;98322.56;5064959;28;20409;-70
2022/06/22 12:29:28;;;;;;;13.80;6.53;;;;;;;26.28;94.50;98313.69;5061591;28;20040;-73
2022/06/22 12:32:13;;;;;;;17.08;7.97;;;;;;;26.32;89.40;98309.94;5047106;28;20024;-73
2022/06/22 12:35:09;;;;;;;13.70;7.43;;;;;;;26.45;98.13;98309.03;5066125;28;20394;-76
2022/06/22 12:37:55;;;;;;;11.27;7.75;;;;;;;26.54;94.42;98298.03;5017267;28;20045;-72
2022/06/22 12:40:34;;;;;;;13.75;8.65;;;;;;;26.37;97.37;98298.72;5066522;28;20100;-65
2022/06/22 12:43:16;;;;;;;12.60;8.23;;;;;;;26.44;96.58;98307.41;5058412;28;20031;-72
2022/06/22 12:46:13;;;;;;;12.77;7.75;;;;;;;26.17;96.62;98291.78;5066627;28;20098;-72
2022/06/22 12:49:14;;;;;;;13.82;8.25;;;;;;;25.70;97.95;98279.41;5024491;28;20113;-73
2022/06/22 12:51:49;;;;;;;12.43;9.02;;;;;;;25.57;100.00;98289.41;5062404;28;20047;-72